sensor_id;sensor_type;location;lat;lon;timestamp;pressure;altitude;pressure_sealevel;temperature;humidity
17060;BME280;8646;49.716;9.266;2023-01-15T00:01:47;98867.00;;;11.23;97.93
17060;BME280;8646;49.716;9.266;2023-01-15T00:04:50;98863.31;;;11.24;97.85
17060;BME280;8646;49.716;9.266;2023-01-15T00:07:54;98833.44;;;11.26;97.81
17060;BME280;8646;49.716;9.266;2023-01-15T00:10:57;98837.88;;;11.27;97.79
17060;BME280;8646;49.716;9.266;2023-01-15T00:14:00;98842.53;;;11.25;98.31
17060;BME280;8646;49.716;9.266;2023-01-15T00:17:03;98842.28;;;11.28;97.99
17060;BME280;8646;49.716;9.266;2023-01-15T00:20:07;98823.56;;;11.25;98.35
17060;BME280;8646;49.716;9.266;2023-01-15T00:23:11;98809.16;;;11.24;98.44
17060;BME280;8646;49.716;9.266;2023-01-15T00:26:37;98814.47;;;11.26;98.14
17060;BME280;8646;49.716;9.266;2023-01-15T00:29:57;98809.78;;;11.28;98.17
17060;BME280;8646;49.716;9.266;2023-01-15T00:33:01;98795.28;;;11.29;98.36
17060;BME280;8646;49.716;9.266;2023-01-15T00:36:04;98790.09;;;11.38;97.62
17060;BME280;8646;49.716;9.266;2023-01-15T00:39:08;98797.78;;;11.32;98.13
17060;BME280;8646;49.716;9.266;2023-01-15T00:42:11;98800.94;;;11.38;97.84
17060;BME280;8646;49.716;9.266;2023-01-15T00:45:14;98781.00;;;11.39;97.27
17060;BME280;8646;49.716;9.266;2023-01-15T00:48:17;98774.72;;;11.39;97.50
17060;BME280;8646;49.716;9.266;2023-01-15T00:51:20;98763.56;;;11.43;97.14
17060;BME280;8646;49.716;9.266;2023-01-15T00:54:27;98775.16;;;11.45;97.07
17060;BME280;8646;49.716;9.266;2023-01-15T00:57:30;98749.59;;;11.50;96.96
17060;BME280;8646;49.716;9.266;2023-01-15T01:00:32;98754.16;;;11.49;96.75
17060;BME280;8646;49.716;9.266;2023-01-15T01:03:35;98758.59;;;11.50;96.77
17060;BME280;8646;49.716;9.266;2023-01-15T01:06:38;98750.22;;;11.53;96.47
17060;BME280;8646;49.716;9.266;2023-01-15T01:09:44;98755.88;;;11.50;96.75
17060;BME280;8646;49.716;9.266;2023-01-15T01:12:52;98764.00;;;11.50;96.58
17060;BME280;8646;49.716;9.266;2023-01-15T01:15:56;98743.94;;;11.53;96.69
17060;BME280;8646;49.716;9.266;2023-01-15T01:19:00;98730.94;;;11.45;96.70
17060;BME280;8646;49.716;9.266;2023-01-15T01:22:04;98739.72;;;11.61;96.47
17060;BME280;8646;49.716;9.266;2023-01-15T01:25:09;98738.53;;;11.53;96.90
17060;BME280;8646;49.716;9.266;2023-01-15T01:28:12;98755.13;;;11.48;97.16
17060;BME280;8646;49.716;9.266;2023-01-15T01:31:18;98747.00;;;11.48;97.39
17060;BME280;8646;49.716;9.266;2023-01-15T01:34:21;98745.16;;;11.48;97.95
17060;BME280;8646;49.716;9.266;2023-01-15T01:37:24;98730.84;;;11.46;98.02
17060;BME280;8646;49.716;9.266;2023-01-15T01:40:28;98732.06;;;11.42;98.08
17060;BME280;8646;49.716;9.266;2023-01-15T01:43:51;98733.34;;;11.37;98.79
17060;BME280;8646;49.716;9.266;2023-01-15T01:46:55;98719.69;;;11.38;98.38
17060;BME280;8646;49.716;9.266;2023-01-15T01:50:00;98720.75;;;11.36;98.46
17060;BME280;8646;49.716;9.266;2023-01-15T01:53:07;98710.16;;;11.33;98.58
17060;BME280;8646;49.716;9.266;2023-01-15T01:56:14;98732.03;;;11.30;98.90
17060;BME280;8646;49.716;9.266;2023-01-15T01:59:19;98702.91;;;11.33;99.05
17060;BME280;8646;49.716;9.266;2023-01-15T02:02:27;98714.38;;;11.37;99.04
17060;BME280;8646;49.716;9.266;2023-01-15T02:05:31;98711.66;;;11.37;98.95
17060;BME280;8646;49.716;9.266;2023-01-15T02:08:35;98711.66;;;11.37;99.02
17060;BME280;8646;49.716;9.266;2023-01-15T02:11:41;98707.13;;;11.37;99.06
17060;BME280;8646;49.716;9.266;2023-01-15T02:14:50;98705.38;;;11.36;99.28
17060;BME280;8646;49.716;9.266;2023-01-15T02:18:00;98704.75;;;11.33;99.36
17060;BME280;8646;49.716;9.266;2023-01-15T02:21:07;98702.03;;;11.33;99.08
17060;BME280;8646;49.716;9.266;2023-01-15T02:24:17;98692.63;;;11.26;99.62
17060;BME280;8646;49.716;9.266;2023-01-15T02:27:25;98707.56;;;11.31;99.42
17060;BME280;8646;49.716;9.266;2023-01-15T02:30:32;98696.72;;;11.31;99.53
17060;BME280;8646;49.716;9.266;2023-01-15T02:33:39;98695.75;;;11.32;100.00
17060;BME280;8646;49.716;9.266;2023-01-15T02:36:53;98698.56;;;11.31;99.82
17060;BME280;8646;49.716;9.266;2023-01-15T02:39:59;98692.09;;;11.33;99.95
17060;BME280;8646;49.716;9.266;2023-01-15T02:43:05;98688.50;;;11.33;99.99
17060;BME280;8646;49.716;9.266;2023-01-15T02:46:09;98687.28;;;11.37;99.85
17060;BME280;8646;49.716;9.266;2023-01-15T02:49:16;98686.31;;;11.38;99.95
17060;BME280;8646;49.716;9.266;2023-01-15T02:52:23;98684.38;;;11.40;100.00
17060;BME280;8646;49.716;9.266;2023-01-15T02:55:34;98686.22;;;11.39;99.84
17060;BME280;8646;49.716;9.266;2023-01-15T02:58:42;98697.81;;;11.41;100.00
17060;BME280;8646;49.716;9.266;2023-01-15T03:01:49;98690.78;;;11.39;99.85
17060;BME280;8646;49.716;9.266;2023-01-15T03:05:00;98688.94;;;11.39;99.79
17060;BME280;8646;49.716;9.266;2023-01-15T03:08:06;98684.16;;;11.43;99.87
17060;BME280;8646;49.716;9.266;2023-01-15T03:11:11;98692.28;;;11.43;99.67
17060;BME280;8646;49.716;9.266;2023-01-15T03:14:19;98682.19;;;11.45;99.83
17060;BME280;8646;49.716;9.266;2023-01-15T03:17:34;98676.78;;;11.45;99.68
17060;BME280;8646;49.716;9.266;2023-01-15T03:20:43;98686.88;;;11.43;99.98
17060;BME280;8646;49.716;9.266;2023-01-15T03:23:51;98692.16;;;11.44;99.79
17060;BME280;8646;49.716;9.266;2023-01-15T03:26:56;98693.28;;;11.42;99.71
17060;BME280;8646;49.716;9.266;2023-01-15T03:30:04;98732.78;;;11.57;99.54
17060;BME280;8646;49.716;9.266;2023-01-15T03:33:07;98747.00;;;11.48;99.19
17060;BME280;8646;49.716;9.266;2023-01-15T03:36:15;98763.63;;;10.91;100.00
17060;BME280;8646;49.716;9.266;2023-01-15T03:39:18;98757.53;;;10.88;100.00
17060;BME280;8646;49.716;9.266;2023-01-15T03:42:37;98759.59;;;10.45;100.00
17060;BME280;8646;49.716;9.266;2023-01-15T03:45:49;98765.25;;;10.27;100.00
17060;BME280;8646;49.716;9.266;2023-01-15T03:49:01;98775.59;;;10.07;100.00
17060;BME280;8646;49.716;9.266;2023-01-15T03:52:14;98767.50;;;9.92;100.00
17060;BME280;8646;49.716;9.266;2023-01-15T03:55:22;98768.94;;;9.98;100.00
17060;BME280;8646;49.716;9.266;2023-01-15T03:58:29;98758.94;;;9.86;100.00
17060;BME280;8646;49.716;9.266;2023-01-15T04:01:37;98766.66;;;9.78;100.00
17060;BME280;8646;49.716;9.266;2023-01-15T04:04:42;98775.44;;;9.81;100.00
17060;BME280;8646;49.716;9.266;2023-01-15T04:07:49;98769.78;;;9.72;100.00
17060;BME280;8646;49.716;9.266;2023-01-15T04:10:58;98780.56;;;9.72;100.00
17060;BME280;8646;49.716;9.266;2023-01-15T04:14:02;98789.63;;;9.71;100.00
17060;BME280;8646;49.716;9.266;2023-01-15T04:17:09;98790.50;;;9.71;100.00
17060;BME280;8646;49.716;9.266;2023-01-15T04:20:12;98798.88;;;9.67;100.00
17060;BME280;8646;49.716;9.266;2023-01-15T04:23:15;98804.97;;;9.70;100.00
17060;BME280;8646;49.716;9.266;2023-01-15T04:26:20;98807.19;;;9.64;100.00
17060;BME280;8646;49.716;9.266;2023-01-15T04:29:23;98826.75;;;9.67;100.00
17060;BME280;8646;49.716;9.266;2023-01-15T04:32:35;98821.25;;;9.83;100.00
17060;BME280;8646;49.716;9.266;2023-01-15T04:35:38;98833.34;;;9.77;100.00
17060;BME280;8646;49.716;9.266;2023-01-15T04:38:40;98833.44;;;9.62;100.00
17060;BME280;8646;49.716;9.266;2023-01-15T04:41:44;98837.47;;;9.69;100.00
17060;BME280;8646;49.716;9.266;2023-01-15T04:45:05;98853.84;;;9.37;100.00
17060;BME280;8646;49.716;9.266;2023-01-15T04:48:09;98861.59;;;9.13;100.00
17060;BME280;8646;49.716;9.266;2023-01-15T04:51:13;98854.53;;;9.11;100.00
17060;BME280;8646;49.716;9.266;2023-01-15T04:54:16;98862.41;;;9.00;100.00
17060;BME280;8646;49.716;9.266;2023-01-15T04:57:22;98862.75;;;8.94;100.00
17060;BME280;8646;49.716;9.266;2023-01-15T05:00:25;98868.56;;;9.02;100.00
17060;BME280;8646;49.716;9.266;2023-01-15T05:03:29;98867.97;;;8.97;100.00
17060;BME280;8646;49.716;9.266;2023-01-15T05:06:32;98872.53;;;8.80;100.00
17060;BME280;8646;49.716;9.266;2023-01-15T05:09:35;98865.25;;;8.67;100.00
17060;BME280;8646;49.716;9.266;2023-01-15T05:12:38;98885.75;;;8.69;100.00
17060;BME280;8646;49.716;9.266;2023-01-15T05:15:41;98869.06;;;8.78;100.00
17060;BME280;8646;49.716;9.266;2023-01-15T05:18:48;98875.94;;;8.68;100.00
17060;BME280;8646;49.716;9.266;2023-01-15T05:21:51;98879.50;;;8.69;100.00
17060;BME280;8646;49.716;9.266;2023-01-15T05:24:54;98887.16;;;8.76;100.00
17060;BME280;8646;49.716;9.266;2023-01-15T05:28:00;98874.06;;;8.85;100.00
17060;BME280;8646;49.716;9.266;2023-01-15T05:31:07;98876.97;;;8.82;100.00
17060;BME280;8646;49.716;9.266;2023-01-15T05:34:12;98885.94;;;8.82;100.00
17060;BME280;8646;49.716;9.266;2023-01-15T05:37:15;98891.59;;;8.77;100.00
17060;BME280;8646;49.716;9.266;2023-01-15T05:40:20;98894.38;;;8.76;100.00
17060;BME280;8646;49.716;9.266;2023-01-15T05:43:24;98888.72;;;8.80;100.00
17060;BME280;8646;49.716;9.266;2023-01-15T05:46:32;98879.16;;;8.91;100.00
17060;BME280;8646;49.716;9.266;2023-01-15T05:49:36;98888.00;;;8.77;100.00
17060;BME280;8646;49.716;9.266;2023-01-15T05:52:43;98901.94;;;8.69;100.00
17060;BME280;8646;49.716;9.266;2023-01-15T05:55:45;98906.28;;;8.88;95.58
17060;BME280;8646;49.716;9.266;2023-01-15T05:58:48;98905.78;;;8.34;96.44
17060;BME280;8646;49.716;9.266;2023-01-15T06:01:51;98924.31;;;8.07;98.45
17060;BME280;8646;49.716;9.266;2023-01-15T06:04:56;98942.22;;;8.08;95.15
17060;BME280;8646;49.716;9.266;2023-01-15T06:07:59;98942.19;;;7.75;94.30
17060;BME280;8646;49.716;9.266;2023-01-15T06:11:05;98948.88;;;7.51;95.91
17060;BME280;8646;49.716;9.266;2023-01-15T06:14:09;98958.06;;;7.30;96.80
17060;BME280;8646;49.716;9.266;2023-01-15T06:17:12;98960.56;;;7.15;96.33
17060;BME280;8646;49.716;9.266;2023-01-15T06:20:17;98972.25;;;6.97;98.90
17060;BME280;8646;49.716;9.266;2023-01-15T06:23:20;98978.81;;;7.09;98.30
17060;BME280;8646;49.716;9.266;2023-01-15T06:26:25;98966.44;;;6.87;99.68
17060;BME280;8646;49.716;9.266;2023-01-15T06:29:30;98976.75;;;6.97;100.00
17060;BME280;8646;49.716;9.266;2023-01-15T06:32:33;98985.91;;;6.93;100.00
17060;BME280;8646;49.716;9.266;2023-01-15T06:35:37;98977.78;;;6.94;100.00
17060;BME280;8646;49.716;9.266;2023-01-15T06:38:40;98986.41;;;7.01;100.00
17060;BME280;8646;49.716;9.266;2023-01-15T06:41:46;98989.03;;;7.02;98.99
17060;BME280;8646;49.716;9.266;2023-01-15T06:45:09;99009.28;;;7.09;98.51
17060;BME280;8646;49.716;9.266;2023-01-15T06:48:29;99017.16;;;6.95;99.60
17060;BME280;8646;49.716;9.266;2023-01-15T06:51:40;99021.44;;;6.99;99.05
17060;BME280;8646;49.716;9.266;2023-01-15T06:54:43;99030.69;;;6.94;99.14
17060;BME280;8646;49.716;9.266;2023-01-15T06:57:46;99028.94;;;6.93;98.46
17060;BME280;8646;49.716;9.266;2023-01-15T07:00:48;99050.81;;;6.85;99.86
17060;BME280;8646;49.716;9.266;2023-01-15T07:03:56;99066.00;;;6.86;99.73
17060;BME280;8646;49.716;9.266;2023-01-15T07:07:00;99050.19;;;6.80;99.78
17060;BME280;8646;49.716;9.266;2023-01-15T07:10:04;99055.75;;;6.75;100.00
17060;BME280;8646;49.716;9.266;2023-01-15T07:13:08;99046.69;;;6.78;100.00
17060;BME280;8646;49.716;9.266;2023-01-15T07:16:11;99070.16;;;6.93;99.75
17060;BME280;8646;49.716;9.266;2023-01-15T07:19:28;99083.97;;;6.85;100.00
17060;BME280;8646;49.716;9.266;2023-01-15T07:22:32;99076.53;;;6.90;100.00
17060;BME280;8646;49.716;9.266;2023-01-15T07:25:34;99091.09;;;6.86;100.00
17060;BME280;8646;49.716;9.266;2023-01-15T07:28:39;99107.16;;;6.88;100.00
17060;BME280;8646;49.716;9.266;2023-01-15T07:31:41;99108.59;;;6.95;100.00
17060;BME280;8646;49.716;9.266;2023-01-15T07:34:44;99110.19;;;6.99;100.00
17060;BME280;8646;49.716;9.266;2023-01-15T07:37:51;99105.56;;;7.03;100.00
17060;BME280;8646;49.716;9.266;2023-01-15T07:40:55;99143.78;;;7.09;100.00
17060;BME280;8646;49.716;9.266;2023-01-15T07:44:11;99124.59;;;7.17;100.00
17060;BME280;8646;49.716;9.266;2023-01-15T07:47:31;99129.91;;;7.18;100.00
17060;BME280;8646;49.716;9.266;2023-01-15T07:51:06;99130.72;;;7.20;100.00
17060;BME280;8646;49.716;9.266;2023-01-15T07:54:10;99145.25;;;7.16;100.00
17060;BME280;8646;49.716;9.266;2023-01-15T07:57:15;99136.53;;;7.11;100.00
17060;BME280;8646;49.716;9.266;2023-01-15T08:00:21;99139.78;;;7.18;100.00
17060;BME280;8646;49.716;9.266;2023-01-15T08:03:24;99143.28;;;7.20;100.00
17060;BME280;8646;49.716;9.266;2023-01-15T08:06:26;99143.06;;;7.24;100.00
17060;BME280;8646;49.716;9.266;2023-01-15T08:09:36;99141.19;;;7.26;100.00
17060;BME280;8646;49.716;9.266;2023-01-15T08:12:39;99148.31;;;7.27;99.96
17060;BME280;8646;49.716;9.266;2023-01-15T08:16:00;99150.06;;;7.28;100.00
17060;BME280;8646;49.716;9.266;2023-01-15T08:19:06;99155.28;;;7.32;100.00
17060;BME280;8646;49.716;9.266;2023-01-15T08:22:09;99153.53;;;7.31;100.00
17060;BME280;8646;49.716;9.266;2023-01-15T08:25:16;99150.69;;;7.34;100.00
17060;BME280;8646;49.716;9.266;2023-01-15T08:28:20;99160.28;;;7.39;99.77
17060;BME280;8646;49.716;9.266;2023-01-15T08:31:23;99160.38;;;7.38;100.00
17060;BME280;8646;49.716;9.266;2023-01-15T08:34:26;99160.22;;;7.41;99.96
17060;BME280;8646;49.716;9.266;2023-01-15T08:37:29;99152.50;;;7.33;99.95
17060;BME280;8646;49.716;9.266;2023-01-15T08:40:37;99169.41;;;7.37;99.62
17060;BME280;8646;49.716;9.266;2023-01-15T08:44:01;99168.34;;;7.39;100.00
17060;BME280;8646;49.716;9.266;2023-01-15T08:47:05;99177.25;;;7.41;100.00
17060;BME280;8646;49.716;9.266;2023-01-15T08:50:09;99174.63;;;7.40;99.87
17060;BME280;8646;49.716;9.266;2023-01-15T08:53:15;99167.34;;;7.42;99.83
17060;BME280;8646;49.716;9.266;2023-01-15T08:56:20;99178.84;;;7.45;100.00
17060;BME280;8646;49.716;9.266;2023-01-15T08:59:23;99177.03;;;7.46;100.00
17060;BME280;8646;49.716;9.266;2023-01-15T09:02:26;99183.06;;;7.51;100.00
17060;BME280;8646;49.716;9.266;2023-01-15T09:05:30;99187.19;;;7.58;100.00
17060;BME280;8646;49.716;9.266;2023-01-15T09:08:32;99199.56;;;7.62;100.00
17060;BME280;8646;49.716;9.266;2023-01-15T09:11:37;99195.63;;;7.69;100.00
17060;BME280;8646;49.716;9.266;2023-01-15T09:14:41;99201.91;;;7.70;100.00
17060;BME280;8646;49.716;9.266;2023-01-15T09:18:03;99201.22;;;7.64;100.00
17060;BME280;8646;49.716;9.266;2023-01-15T09:21:08;99212.44;;;7.55;100.00
17060;BME280;8646;49.716;9.266;2023-01-15T09:24:11;99207.16;;;7.54;100.00
17060;BME280;8646;49.716;9.266;2023-01-15T09:27:15;99215.38;;;7.51;100.00
17060;BME280;8646;49.716;9.266;2023-01-15T09:30:19;99226.00;;;7.54;100.00
17060;BME280;8646;49.716;9.266;2023-01-15T09:33:22;99226.00;;;7.54;100.00
17060;BME280;8646;49.716;9.266;2023-01-15T09:36:28;99233.97;;;7.55;100.00
17060;BME280;8646;49.716;9.266;2023-01-15T09:39:31;99225.84;;;7.57;100.00
17060;BME280;8646;49.716;9.266;2023-01-15T09:42:46;99238.34;;;7.58;99.34
17060;BME280;8646;49.716;9.266;2023-01-15T09:45:55;99236.47;;;7.60;98.84
17060;BME280;8646;49.716;9.266;2023-01-15T09:49:05;99241.09;;;7.56;98.87
17060;BME280;8646;49.716;9.266;2023-01-15T09:52:24;99249.94;;;7.60;98.66
17060;BME280;8646;49.716;9.266;2023-01-15T09:55:29;99249.19;;;7.56;98.54
17060;BME280;8646;49.716;9.266;2023-01-15T09:58:36;99257.78;;;7.64;98.04
17060;BME280;8646;49.716;9.266;2023-01-15T10:01:41;99261.91;;;7.72;97.39
17060;BME280;8646;49.716;9.266;2023-01-15T10:04:48;99267.47;;;7.69;97.27
17060;BME280;8646;49.716;9.266;2023-01-15T10:07:58;99271.81;;;7.71;96.48
17060;BME280;8646;49.716;9.266;2023-01-15T10:11:04;99282.50;;;7.73;96.18
17060;BME280;8646;49.716;9.266;2023-01-15T10:14:31;99287.97;;;7.71;95.95
17060;BME280;8646;49.716;9.266;2023-01-15T10:17:41;99277.50;;;7.65;95.63
17060;BME280;8646;49.716;9.266;2023-01-15T10:20:52;99270.34;;;7.64;95.82
17060;BME280;8646;49.716;9.266;2023-01-15T10:24:06;99282.88;;;7.65;95.83
17060;BME280;8646;49.716;9.266;2023-01-15T10:27:17;99292.72;;;7.66;95.79
17060;BME280;8646;49.716;9.266;2023-01-15T10:30:32;99293.06;;;7.58;95.48
17060;BME280;8646;49.716;9.266;2023-01-15T10:33:52;99306.59;;;7.57;95.18
17060;BME280;8646;49.716;9.266;2023-01-15T10:37:06;99311.34;;;7.52;94.91
17060;BME280;8646;49.716;9.266;2023-01-15T10:40:32;99324.91;;;7.49;95.02
17060;BME280;8646;49.716;9.266;2023-01-15T10:43:47;99337.66;;;7.45;94.58
17060;BME280;8646;49.716;9.266;2023-01-15T10:46:55;99332.88;;;7.52;93.44
17060;BME280;8646;49.716;9.266;2023-01-15T10:50:02;99330.88;;;7.37;93.86
17060;BME280;8646;49.716;9.266;2023-01-15T10:53:10;99330.88;;;7.37;93.75
17060;BME280;8646;49.716;9.266;2023-01-15T10:56:23;99347.97;;;7.36;93.72
17060;BME280;8646;49.716;9.266;2023-01-15T10:59:36;99345.41;;;7.33;93.21
17060;BME280;8646;49.716;9.266;2023-01-15T11:02:44;99345.28;;;7.36;92.82
17060;BME280;8646;49.716;9.266;2023-01-15T11:05:48;99339.66;;;7.40;92.45
17060;BME280;8646;49.716;9.266;2023-01-15T11:08:53;99327.25;;;7.38;93.09
17060;BME280;8646;49.716;9.266;2023-01-15T11:12:19;99341.34;;;7.43;92.51
17060;BME280;8646;49.716;9.266;2023-01-15T11:15:59;99339.19;;;7.51;92.60
17060;BME280;8646;49.716;9.266;2023-01-15T11:19:27;99326.44;;;7.54;92.74
17060;BME280;8646;49.716;9.266;2023-01-15T11:22:53;99328.88;;;7.60;92.29
17060;BME280;8646;49.716;9.266;2023-01-15T11:25:58;99344.88;;;7.63;91.64
17060;BME280;8646;49.716;9.266;2023-01-15T11:29:13;99323.34;;;7.45;91.50
17060;BME280;8646;49.716;9.266;2023-01-15T11:32:25;99329.75;;;7.61;90.62
17060;BME280;8646;49.716;9.266;2023-01-15T11:35:33;99345.81;;;7.44;89.71
17060;BME280;8646;49.716;9.266;2023-01-15T11:38:43;99349.78;;;7.35;89.36
17060;BME280;8646;49.716;9.266;2023-01-15T11:41:47;99337.38;;;7.31;89.35
17060;BME280;8646;49.716;9.266;2023-01-15T11:45:12;99329.47;;;7.28;89.86
17060;BME280;8646;49.716;9.266;2023-01-15T11:48:43;99322.41;;;7.25;89.46
17060;BME280;8646;49.716;9.266;2023-01-15T11:52:07;99327.78;;;7.25;90.02
17060;BME280;8646;49.716;9.266;2023-01-15T11:55:13;99333.91;;;7.29;89.26
17060;BME280;8646;49.716;9.266;2023-01-15T11:58:16;99330.47;;;7.25;89.51
17060;BME280;8646;49.716;9.266;2023-01-15T12:01:21;99341.13;;;7.28;89.61
17060;BME280;8646;49.716;9.266;2023-01-15T12:04:32;99335.44;;;7.35;90.08
17060;BME280;8646;49.716;9.266;2023-01-15T12:07:38;99346.75;;;7.43;89.87
17060;BME280;8646;49.716;9.266;2023-01-15T12:10:48;99345.59;;;7.48;88.79
17060;BME280;8646;49.716;9.266;2023-01-15T12:15:03;99345.94;;;7.41;89.70
17060;BME280;8646;49.716;9.266;2023-01-15T12:18:27;99353.47;;;7.33;87.17
17060;BME280;8646;49.716;9.266;2023-01-15T12:21:53;99356.72;;;7.20;87.67
17060;BME280;8646;49.716;9.266;2023-01-15T12:25:18;99368.50;;;7.18;87.41
17060;BME280;8646;49.716;9.266;2023-01-15T12:28:27;99353.34;;;7.15;88.03
17060;BME280;8646;49.716;9.266;2023-01-15T12:31:36;99349.88;;;7.13;88.14
17060;BME280;8646;49.716;9.266;2023-01-15T12:34:43;99331.56;;;7.21;87.76
17060;BME280;8646;49.716;9.266;2023-01-15T12:37:52;99330.41;;;7.27;88.15
17060;BME280;8646;49.716;9.266;2023-01-15T12:41:01;99349.84;;;7.34;87.70
17060;BME280;8646;49.716;9.266;2023-01-15T12:44:08;99348.91;;;7.35;86.56
17060;BME280;8646;49.716;9.266;2023-01-15T12:47:33;99360.19;;;7.22;86.90
17060;BME280;8646;49.716;9.266;2023-01-15T12:50:41;99353.22;;;7.18;86.99
17060;BME280;8646;49.716;9.266;2023-01-15T12:53:48;99338.84;;;7.19;86.79
17060;BME280;8646;49.716;9.266;2023-01-15T12:56:58;99346.16;;;7.16;87.34
17060;BME280;8646;49.716;9.266;2023-01-15T13:00:10;99337.19;;;7.15;87.13
17060;BME280;8646;49.716;9.266;2023-01-15T13:03:21;99338.63;;;7.24;86.89
17060;BME280;8646;49.716;9.266;2023-01-15T13:06:25;99337.25;;;7.34;87.33
17060;BME280;8646;49.716;9.266;2023-01-15T13:09:38;99332.47;;;7.41;86.97
17060;BME280;8646;49.716;9.266;2023-01-15T13:12:50;99332.19;;;7.47;86.38
17060;BME280;8646;49.716;9.266;2023-01-15T13:16:17;99328.84;;;7.42;85.63
17060;BME280;8646;49.716;9.266;2023-01-15T13:19:35;99338.28;;;7.32;85.81
17060;BME280;8646;49.716;9.266;2023-01-15T13:22:46;99332.09;;;7.30;85.51
17060;BME280;8646;49.716;9.266;2023-01-15T13:26:02;99341.13;;;7.28;85.44
17060;BME280;8646;49.716;9.266;2023-01-15T13:29:14;99329.84;;;7.39;85.29
17060;BME280;8646;49.716;9.266;2023-01-15T13:32:24;99329.59;;;7.45;85.74
17060;BME280;8646;49.716;9.266;2023-01-15T13:35:30;99326.75;;;7.48;85.42
17060;BME280;8646;49.716;9.266;2023-01-15T13:38:39;99343.81;;;7.47;84.68
17060;BME280;8646;49.716;9.266;2023-01-15T13:41:48;99335.44;;;7.35;83.99
17060;BME280;8646;49.716;9.266;2023-01-15T13:45:23;99333.50;;;7.18;84.47
17060;BME280;8646;49.716;9.266;2023-01-15T13:48:31;99351.06;;;7.06;84.26
17060;BME280;8646;49.716;9.266;2023-01-15T13:51:47;99355.22;;;6.93;85.05
17060;BME280;8646;49.716;9.266;2023-01-15T13:54:51;99362.53;;;6.89;84.52
17060;BME280;8646;49.716;9.266;2023-01-15T13:57:54;99361.69;;;6.89;85.43
17060;BME280;8646;49.716;9.266;2023-01-15T14:01:07;99379.81;;;6.84;85.04
17060;BME280;8646;49.716;9.266;2023-01-15T14:04:13;99372.69;;;6.83;84.62
17060;BME280;8646;49.716;9.266;2023-01-15T14:07:31;99385.09;;;6.87;85.04
17060;BME280;8646;49.716;9.266;2023-01-15T14:10:43;99375.00;;;6.92;84.49
17060;BME280;8646;49.716;9.266;2023-01-15T14:13:58;99391.41;;;6.86;84.54
17060;BME280;8646;49.716;9.266;2023-01-15T14:21:06;99396.22;;;6.78;84.32
17060;BME280;8646;49.716;9.266;2023-01-15T14:24:32;99403.72;;;6.70;84.69
17060;BME280;8646;49.716;9.266;2023-01-15T14:27:51;99404.72;;;6.67;84.91
17060;BME280;8646;49.716;9.266;2023-01-15T14:31:07;99421.13;;;6.61;84.74
17060;BME280;8646;49.716;9.266;2023-01-15T14:34:20;99399.00;;;6.55;84.82
17060;BME280;8646;49.716;9.266;2023-01-15T14:37:28;99406.91;;;6.58;85.21
17060;BME280;8646;49.716;9.266;2023-01-15T14:40:33;99407.88;;;6.57;85.02
17060;BME280;8646;49.716;9.266;2023-01-15T14:43:38;99397.34;;;6.50;85.08
17060;BME280;8646;49.716;9.266;2023-01-15T14:46:57;99394.59;;;6.52;84.88
17060;BME280;8646;49.716;9.266;2023-01-15T14:50:31;99400.03;;;6.50;84.92
17060;BME280;8646;49.716;9.266;2023-01-15T14:53:41;99402.78;;;6.49;85.30
17060;BME280;8646;49.716;9.266;2023-01-15T14:56:59;99405.31;;;6.54;84.84
17060;BME280;8646;49.716;9.266;2023-01-15T15:00:05;99407.16;;;6.51;84.71
17060;BME280;8646;49.716;9.266;2023-01-15T15:03:15;99401.28;;;6.42;84.82
17060;BME280;8646;49.716;9.266;2023-01-15T15:06:20;99414.56;;;6.46;83.96
17060;BME280;8646;49.716;9.266;2023-01-15T15:09:29;99411.00;;;6.46;84.46
17060;BME280;8646;49.716;9.266;2023-01-15T15:12:37;99407.34;;;6.25;84.21
17060;BME280;8646;49.716;9.266;2023-01-15T15:15:46;99440.72;;;6.41;83.98
17060;BME280;8646;49.716;9.266;2023-01-15T15:18:57;99424.75;;;6.38;84.47
17060;BME280;8646;49.716;9.266;2023-01-15T15:22:06;99433.63;;;6.40;84.54
17060;BME280;8646;49.716;9.266;2023-01-15T15:25:11;99441.53;;;6.43;84.36
17060;BME280;8646;49.716;9.266;2023-01-15T15:28:20;99446.25;;;6.60;83.61
17060;BME280;8646;49.716;9.266;2023-01-15T15:31:26;99453.19;;;6.66;83.24
17060;BME280;8646;49.716;9.266;2023-01-15T15:34:31;99450.69;;;6.61;83.27
17060;BME280;8646;49.716;9.266;2023-01-15T15:37:42;99440.13;;;6.57;83.37
17060;BME280;8646;49.716;9.266;2023-01-15T15:40:54;99445.63;;;6.54;83.37
17060;BME280;8646;49.716;9.266;2023-01-15T15:44:00;99440.50;;;6.47;82.63
17060;BME280;8646;49.716;9.266;2023-01-15T15:47:36;99445.88;;;6.47;83.03
17060;BME280;8646;49.716;9.266;2023-01-15T15:51:26;99436.06;;;6.46;83.22
17060;BME280;8646;49.716;9.266;2023-01-15T15:54:34;99435.81;;;6.53;82.79
17060;BME280;8646;49.716;9.266;2023-01-15T15:57:37;99440.97;;;6.57;82.61
17060;BME280;8646;49.716;9.266;2023-01-15T16:00:40;99447.19;;;6.59;82.79
17060;BME280;8646;49.716;9.266;2023-01-15T16:03:47;99437.44;;;6.57;82.61
17060;BME280;8646;49.716;9.266;2023-01-15T16:06:51;99434.97;;;6.50;82.68
17060;BME280;8646;49.716;9.266;2023-01-15T16:09:58;99437.50;;;6.55;82.14
17060;BME280;8646;49.716;9.266;2023-01-15T16:13:05;99423.13;;;6.56;82.34
17060;BME280;8646;49.716;9.266;2023-01-15T16:16:09;99435.69;;;6.56;82.51
17060;BME280;8646;49.716;9.266;2023-01-15T16:19:18;99430.22;;;6.57;81.78
17060;BME280;8646;49.716;9.266;2023-01-15T16:22:23;99427.69;;;6.54;82.13
17060;BME280;8646;49.716;9.266;2023-01-15T16:25:32;99427.69;;;6.54;82.01
17060;BME280;8646;49.716;9.266;2023-01-15T16:28:37;99416.06;;;6.54;82.05
17060;BME280;8646;49.716;9.266;2023-01-15T16:32:09;99417.34;;;6.43;82.04
17060;BME280;8646;49.716;9.266;2023-01-15T16:35:17;99427.38;;;6.40;82.21
17060;BME280;8646;49.716;9.266;2023-01-15T16:38:20;99415.09;;;6.33;82.24
17060;BME280;8646;49.716;9.266;2023-01-15T16:41:30;99427.09;;;6.24;82.51
17060;BME280;8646;49.716;9.266;2023-01-15T16:44:38;99429.91;;;6.21;82.85
17060;BME280;8646;49.716;9.266;2023-01-15T16:48:00;99411.97;;;6.22;82.85
17060;BME280;8646;49.716;9.266;2023-01-15T16:51:29;99412.53;;;6.30;83.33
17060;BME280;8646;49.716;9.266;2023-01-15T16:54:43;99407.22;;;6.28;83.46
17060;BME280;8646;49.716;9.266;2023-01-15T16:58:17;99403.59;;;6.29;83.10
17060;BME280;8646;49.716;9.266;2023-01-15T17:01:36;99405.34;;;6.30;82.93
17060;BME280;8646;49.716;9.266;2023-01-15T17:04:43;99400.63;;;6.37;82.53
17060;BME280;8646;49.716;9.266;2023-01-15T17:07:58;99406.81;;;6.39;82.96